createdAt,value
2018-09-01T00:02:22.759Z,5.73
2018-09-01T00:04:49.732Z,5.60
2018-09-01T00:07:16.663Z,5.83
2018-09-01T00:09:43.608Z,5.90
2018-09-01T00:12:10.573Z,5.27
2018-09-01T00:14:37.520Z,5.60
2018-09-01T00:17:05.551Z,4.63
2018-09-01T00:19:33.684Z,5.67
2018-09-01T00:22:00.568Z,5.10
2018-09-01T00:24:27.490Z,4.63
2018-09-01T00:26:54.447Z,4.53
2018-09-01T00:29:22.407Z,4.60
2018-09-01T00:31:49.328Z,4.90
2018-09-01T00:34:16.288Z,4.47
2018-09-01T00:36:43.247Z,3.40
2018-09-01T00:39:10.177Z,4.13
2018-09-01T00:41:37.167Z,3.50
2018-09-01T00:44:04.130Z,3.33
2018-09-01T00:46:31.599Z,3.83
2018-09-01T00:48:58.538Z,3.90
2018-09-01T00:51:25.501Z,4.63
2018-09-01T00:53:52.466Z,3.40
2018-09-01T00:56:21.350Z,2.70
2018-09-01T00:58:48.348Z,3.00
2018-09-01T01:01:15.251Z,3.23
2018-09-01T01:03:42.223Z,2.77
2018-09-01T01:06:09.168Z,3.17
2018-09-01T01:08:36.136Z,2.43
2018-09-01T01:11:03.037Z,2.63
2018-09-01T01:13:29.936Z,2.73
2018-09-01T01:15:57.944Z,2.63
2018-09-01T01:18:24.882Z,3.20
2018-09-01T01:20:51.948Z,2.37
2018-09-01T01:23:19.941Z,2.57
2018-09-01T01:25:47.844Z,2.80
2018-09-01T01:28:14.773Z,2.73
2018-09-01T01:30:41.707Z,2.37
2018-09-01T01:33:08.643Z,2.43
2018-09-01T01:35:36.471Z,2.40
2018-09-01T01:38:03.479Z,2.40
2018-09-01T01:40:31.387Z,2.20
2018-09-01T01:42:58.354Z,1.90
2018-09-01T01:45:25.327Z,1.93
2018-09-01T01:47:52.890Z,1.90
2018-09-01T01:50:19.849Z,1.83
2018-09-01T01:52:46.822Z,2.67
2018-09-01T01:55:13.707Z,2.63
2018-09-01T01:57:46.420Z,1.77
2018-09-01T02:00:13.419Z,2.10
2018-09-01T02:02:40.372Z,2.10
2018-09-01T02:05:08.930Z,2.33
2018-09-01T02:07:35.904Z,1.97
2018-09-01T02:10:02.856Z,2.30
2018-09-01T02:12:29.787Z,2.00
2018-09-01T02:14:57.388Z,2.10
2018-09-01T02:17:24.360Z,1.60
2018-09-01T02:19:51.376Z,1.53
2018-09-01T02:22:18.984Z,1.73
2018-09-01T02:24:45.952Z,1.73
2018-09-01T02:27:13.870Z,1.87
2018-09-01T02:29:40.828Z,2.10
2018-09-01T02:32:07.724Z,1.93
2018-09-01T02:34:34.694Z,1.70
2018-09-01T02:37:01.669Z,2.00
2018-09-01T02:39:29.430Z,1.97
2018-09-01T02:41:56.425Z,2.07
2018-09-01T02:44:23.959Z,1.50
2018-09-01T02:46:50.960Z,2.60
2018-09-01T02:49:17.932Z,1.73
2018-09-01T02:51:45.432Z,1.80
2018-09-01T02:54:12.391Z,2.40
2018-09-01T02:56:39.348Z,1.90
2018-09-01T02:59:06.272Z,1.67
2018-09-01T03:01:35.834Z,1.57
2018-09-01T03:04:03.175Z,1.70
2018-09-01T03:06:42.570Z,1.37
2018-09-01T03:09:09.509Z,1.80
2018-09-01T03:11:36.439Z,1.40
2018-09-01T03:14:03.411Z,1.70
2018-09-01T03:16:31.396Z,1.43
2018-09-01T03:18:58.355Z,1.90
2018-09-01T03:21:25.282Z,1.63
2018-09-01T03:23:53.000Z,1.87
2018-09-01T03:26:19.979Z,1.80
2018-09-01T03:28:46.887Z,1.70
2018-09-01T03:31:13.980Z,1.77
2018-09-01T03:33:40.835Z,3.23
2018-09-01T03:36:07.758Z,1.87
2018-09-01T03:38:34.719Z,1.87
2018-09-01T03:41:01.639Z,1.83
2018-09-01T03:43:28.691Z,1.53
2018-09-01T03:45:55.607Z,1.53
2018-09-01T03:48:24.580Z,1.60
2018-09-01T03:50:51.535Z,1.93
2018-09-01T03:53:19.547Z,2.53
2018-09-01T03:55:46.514Z,1.80
2018-09-01T03:58:13.446Z,2.07
2018-09-01T04:00:40.411Z,1.53
2018-09-01T04:03:07.387Z,3.70
2018-09-01T04:05:34.367Z,2.33
2018-09-01T04:08:01.395Z,2.20
2018-09-01T04:10:28.432Z,1.40
2018-09-01T04:12:55.407Z,1.43
2018-09-01T04:15:22.358Z,1.50
2018-09-01T04:17:49.316Z,1.30
2018-09-01T04:20:16.271Z,2.00
2018-09-01T04:22:43.279Z,1.70
2018-09-01T04:25:10.182Z,1.70
2018-09-01T04:27:37.177Z,1.30
2018-09-01T04:30:05.217Z,1.87
2018-09-01T04:32:32.075Z,1.63
2018-09-01T04:34:58.975Z,1.90
2018-09-01T04:37:25.899Z,2.23
2018-09-01T04:39:53.460Z,1.80
2018-09-01T04:42:20.435Z,2.27
2018-09-01T04:44:47.370Z,1.83
2018-09-01T04:47:14.348Z,2.30
2018-09-01T04:49:41.311Z,2.33
2018-09-01T04:52:08.276Z,1.20
2018-09-01T04:54:35.248Z,2.27
2018-09-01T04:57:02.226Z,2.00
2018-09-01T04:59:29.091Z,1.83
2018-09-01T05:01:57.011Z,1.60
2018-09-01T05:04:24.625Z,1.80
2018-09-01T05:06:51.503Z,1.70
2018-09-01T05:09:20.084Z,1.70
2018-09-01T05:11:46.981Z,1.67
2018-09-01T05:14:13.960Z,2.00
2018-09-01T05:16:40.875Z,1.47
2018-09-01T05:19:07.886Z,1.50
2018-09-01T05:21:38.539Z,2.10
2018-09-01T05:24:05.502Z,1.90
2018-09-01T05:26:32.395Z,1.67
2018-09-01T05:29:00.488Z,2.20
2018-09-01T05:31:28.479Z,1.70
2018-09-01T05:33:55.456Z,1.80
2018-09-01T05:36:22.438Z,2.10
2018-09-01T05:38:49.387Z,1.60
2018-09-01T05:41:16.321Z,1.97
2018-09-01T05:43:43.507Z,1.70
2018-09-01T05:46:10.435Z,1.83
2018-09-01T05:48:38.227Z,2.17
2018-09-01T05:51:05.195Z,2.00
2018-09-01T05:53:33.052Z,1.47
2018-09-01T05:56:00.007Z,1.93
2018-09-01T05:58:26.968Z,2.00
2018-09-01T06:00:53.883Z,1.33
2018-09-01T06:03:21.596Z,2.20
2018-09-01T06:05:49.246Z,2.10
2018-09-01T06:08:16.744Z,1.57
2018-09-01T06:10:43.713Z,1.40
2018-09-01T06:13:10.648Z,1.60
2018-09-01T06:15:38.719Z,2.10
2018-09-01T06:18:06.096Z,2.10
2018-09-01T06:20:33.621Z,1.60
2018-09-01T06:23:01.584Z,1.83
2018-09-01T06:25:28.580Z,1.67
2018-09-01T06:27:58.416Z,2.00
2018-09-01T06:30:28.135Z,1.80
2018-09-01T06:32:55.128Z,1.80
2018-09-01T06:35:22.090Z,1.70
2018-09-01T06:37:49.075Z,2.00
2018-09-01T06:40:16.090Z,2.30
2018-09-01T06:42:43.027Z,1.50
2018-09-01T06:45:10.060Z,1.60
2018-09-01T06:47:36.967Z,1.63
2018-09-01T06:50:03.928Z,1.90
2018-09-01T06:52:30.904Z,1.87
2018-09-01T06:54:58.869Z,2.00
2018-09-01T06:57:25.869Z,1.80
2018-09-01T06:59:52.768Z,1.77
2018-09-01T07:02:19.757Z,1.93
2018-09-01T07:04:46.669Z,1.63
2018-09-01T07:07:14.568Z,2.13
2018-09-01T07:09:41.523Z,1.90
2018-09-01T07:12:08.494Z,2.20
2018-09-01T07:14:35.455Z,1.70
2018-09-01T07:17:02.351Z,1.93
2018-09-01T07:19:29.252Z,1.47
2018-09-01T07:21:56.238Z,2.50
2018-09-01T07:24:24.195Z,1.77
2018-09-01T07:26:51.150Z,1.90
2018-09-01T07:29:19.158Z,2.10
2018-09-01T07:31:46.159Z,1.80
2018-09-01T07:34:13.195Z,1.80
2018-09-01T07:36:40.120Z,2.10
2018-09-01T07:39:07.506Z,1.80
2018-09-01T07:41:34.423Z,2.00
2018-09-01T07:44:01.443Z,2.00
2018-09-01T07:46:28.373Z,1.80
2018-09-01T07:48:55.432Z,1.60
2018-09-01T07:51:22.434Z,2.00
2018-09-01T07:53:50.475Z,1.90
2018-09-01T07:56:17.492Z,1.90
2018-09-01T07:58:44.409Z,2.30
2018-09-01T08:01:11.648Z,2.20
2018-09-01T08:03:40.459Z,1.93
2018-09-01T08:06:07.473Z,2.00
2018-09-01T08:08:35.148Z,1.90
2018-09-01T08:11:02.527Z,1.87
2018-09-01T08:13:29.479Z,1.60
2018-09-01T08:15:56.447Z,2.20
2018-09-01T08:18:23.364Z,2.17
2018-09-01T08:20:50.387Z,2.23
2018-09-01T08:23:19.405Z,2.10
2018-09-01T08:25:46.329Z,1.83
2018-09-01T08:28:13.316Z,1.90
2018-09-01T08:30:40.227Z,1.80
2018-09-01T08:33:09.271Z,2.20
2018-09-01T08:35:37.223Z,1.53
2018-09-01T08:38:06.172Z,2.10
2018-09-01T08:40:33.052Z,1.77
2018-09-01T08:43:00.049Z,1.90
2018-09-01T08:45:27.099Z,2.03
2018-09-01T08:47:54.602Z,2.00
2018-09-01T08:50:21.517Z,1.50
2018-09-01T08:52:48.889Z,2.00
2018-09-01T08:55:15.882Z,2.20
2018-09-01T08:57:42.848Z,1.43
2018-09-01T09:00:11.712Z,1.47
2018-09-01T09:02:38.551Z,1.87
2018-09-01T09:05:05.755Z,2.20
2018-09-01T09:07:32.712Z,2.00
2018-09-01T09:09:59.670Z,2.00
2018-09-01T09:12:26.631Z,2.00
2018-09-01T09:14:53.585Z,2.00
2018-09-01T09:17:20.544Z,2.07
2018-09-01T09:19:47.498Z,2.20
2018-09-01T09:22:14.459Z,2.03
2018-09-01T09:24:41.603Z,1.80
2018-09-01T09:27:08.555Z,2.10
2018-09-01T09:29:39.607Z,1.70
2018-09-01T09:32:06.665Z,2.20
2018-09-01T09:34:33.656Z,1.80
2018-09-01T09:37:00.587Z,2.58
2018-09-01T09:39:27.551Z,2.00
2018-09-01T09:41:54.614Z,1.80
2018-09-01T09:44:21.475Z,2.33
2018-09-01T09:46:48.434Z,2.00
2018-09-01T09:49:16.391Z,2.90
2018-09-01T09:51:43.343Z,2.03
2018-09-01T09:54:12.386Z,2.70
2018-09-01T09:56:40.340Z,2.40
2018-09-01T09:59:07.318Z,2.57
2018-09-01T10:01:39.771Z,2.17
2018-09-01T10:04:09.487Z,1.93
2018-09-01T10:06:37.176Z,2.40
2018-09-01T10:09:08.781Z,2.30
2018-09-01T10:11:35.740Z,2.03
2018-09-01T10:14:02.699Z,2.30
2018-09-01T10:16:30.672Z,2.27
2018-09-01T10:18:57.580Z,2.13
2018-09-01T10:21:24.563Z,1.90
2018-09-01T10:23:51.541Z,2.20
2018-09-01T10:26:23.192Z,2.40
2018-09-01T10:28:50.151Z,2.10
2018-09-01T10:31:17.724Z,2.23
2018-09-01T10:33:45.223Z,2.30
2018-09-01T10:36:12.148Z,2.30
2018-09-01T10:38:39.113Z,2.10
2018-09-01T10:41:06.064Z,1.90
2018-09-01T10:43:33.015Z,2.50
2018-09-01T10:45:59.986Z,2.30
2018-09-01T10:48:26.939Z,2.40
2018-09-01T10:50:53.811Z,1.90
2018-09-01T10:53:21.780Z,2.27
2018-09-01T10:55:48.723Z,2.13
2018-09-01T10:58:15.743Z,2.43
2018-09-01T11:00:42.636Z,2.53
2018-09-01T11:03:09.623Z,2.37
2018-09-01T11:05:36.650Z,2.23
2018-09-01T11:08:04.180Z,2.07
2018-09-01T11:10:31.698Z,3.20
2018-09-01T11:12:58.627Z,2.63
2018-09-01T11:15:27.252Z,1.70
2018-09-01T11:17:54.266Z,2.40
2018-09-01T11:20:21.851Z,1.83
2018-09-01T11:22:48.714Z,3.00
2018-09-01T11:25:16.507Z,2.40
2018-09-01T11:27:47.137Z,1.93
2018-09-01T11:30:13.975Z,2.20
2018-09-01T11:32:41.822Z,2.37
2018-09-01T11:35:09.147Z,1.50
2018-09-01T11:37:36.136Z,1.53
2018-09-01T11:40:03.078Z,2.63
2018-09-01T11:42:30.234Z,1.80
2018-09-01T11:44:56.984Z,1.87
2018-09-01T11:47:24.780Z,2.90
2018-09-01T11:49:51.735Z,1.83
2018-09-01T11:52:18.719Z,2.40
2018-09-01T11:54:45.614Z,2.00
2018-09-01T11:57:12.649Z,1.97
2018-09-01T11:59:39.676Z,1.97
2018-09-01T12:02:06.627Z,2.00
2018-09-01T12:04:34.335Z,1.67
2018-09-01T12:07:02.265Z,2.00
2018-09-01T12:09:29.272Z,2.07
2018-09-01T12:11:56.184Z,1.77
2018-09-01T12:14:23.131Z,1.87
2018-09-01T12:16:50.010Z,2.13
2018-09-01T12:19:16.961Z,1.93
2018-09-01T12:21:44.744Z,1.67
2018-09-01T12:24:11.690Z,1.40
2018-09-01T12:26:38.639Z,2.57
2018-09-01T12:29:05.606Z,1.60
2018-09-01T12:31:32.571Z,1.97
2018-09-01T12:33:59.498Z,2.20
2018-09-01T12:36:27.355Z,1.90
2018-09-01T12:38:54.378Z,1.90
2018-09-01T12:41:21.319Z,1.70
2018-09-01T12:43:48.282Z,2.10
2018-09-01T12:46:15.351Z,1.60
2018-09-01T12:48:42.283Z,1.50
2018-09-01T12:51:09.741Z,1.73
2018-09-01T12:53:36.715Z,1.80
2018-09-01T12:56:03.676Z,2.10
2018-09-01T12:58:30.616Z,1.43
2018-09-01T13:00:57.592Z,1.60
2018-09-01T13:03:24.695Z,1.93
2018-09-01T13:05:51.610Z,1.93
2018-09-01T13:08:18.559Z,1.60
2018-09-01T13:10:46.299Z,1.50
2018-09-01T13:13:13.310Z,2.23
2018-09-01T13:15:40.272Z,1.50
2018-09-01T13:18:07.191Z,2.10
2018-09-01T13:20:34.347Z,1.60
2018-09-01T13:23:01.319Z,1.73
2018-09-01T13:25:28.447Z,1.73
2018-09-01T13:27:55.364Z,2.23
2018-09-01T13:30:22.296Z,3.23
2018-09-01T13:32:50.188Z,2.03
2018-09-01T13:35:17.933Z,1.83
2018-09-01T13:37:44.823Z,1.70
2018-09-01T13:40:12.740Z,1.97
2018-09-01T13:42:39.596Z,1.50
2018-09-01T13:45:06.501Z,1.37
2018-09-01T13:47:33.482Z,1.70
2018-09-01T13:50:00.419Z,1.70
2018-09-01T13:52:27.392Z,1.90
2018-09-01T13:54:54.352Z,1.90
2018-09-01T13:57:21.307Z,1.60
2018-09-01T13:59:48.244Z,1.60
2018-09-01T14:02:15.207Z,1.63
2018-09-01T14:04:42.166Z,1.47
2018-09-01T14:07:09.336Z,1.47
2018-09-01T14:09:36.274Z,1.47
2018-09-01T14:12:03.246Z,1.70
2018-09-01T14:14:30.226Z,1.50
2018-09-01T14:16:57.173Z,1.50
2018-09-01T14:19:24.107Z,1.50
2018-09-01T14:21:51.067Z,1.80
2018-09-01T14:24:18.028Z,1.70
2018-09-01T14:26:44.977Z,1.40
2018-09-01T14:29:11.976Z,1.50
2018-09-01T14:31:38.896Z,1.67
2018-09-01T14:34:05.919Z,1.73
2018-09-01T14:36:32.903Z,1.90
2018-09-01T14:38:59.815Z,1.77
2018-09-01T14:41:26.763Z,1.33
2018-09-01T14:43:53.725Z,1.37
2018-09-01T14:46:20.629Z,1.67
2018-09-01T14:48:47.657Z,1.50
2018-09-01T14:51:14.652Z,1.70
2018-09-01T14:53:41.615Z,1.40
2018-09-01T14:56:08.559Z,1.10
2018-09-01T14:58:35.540Z,1.47
2018-09-01T15:01:02.531Z,1.60
2018-09-01T15:03:29.472Z,1.63
2018-09-01T15:05:56.556Z,1.30
2018-09-01T15:08:23.464Z,1.83
2018-09-01T15:10:50.475Z,1.80
2018-09-01T15:13:17.403Z,1.30
2018-09-01T15:15:44.303Z,1.10
2018-09-01T15:18:11.291Z,1.73
2018-09-01T15:20:38.289Z,1.50
2018-09-01T15:23:06.235Z,1.47
2018-09-01T15:25:33.202Z,1.87
2018-09-01T15:28:00.877Z,1.47
2018-09-01T15:30:27.847Z,1.40
2018-09-01T15:32:54.791Z,1.57
2018-09-01T15:35:21.771Z,1.70
2018-09-01T15:37:48.729Z,1.47
2018-09-01T15:40:15.670Z,1.30
2018-09-01T15:42:42.619Z,1.60
2018-09-01T15:45:09.563Z,1.57
2018-09-01T15:47:36.527Z,1.53
2018-09-01T15:50:03.478Z,1.20
2018-09-01T15:52:30.403Z,1.47
2018-09-01T15:54:57.399Z,1.40
2018-09-01T15:57:24.351Z,1.57
2018-09-01T15:59:51.335Z,1.30
2018-09-01T16:02:18.380Z,1.27
2018-09-01T16:04:45.617Z,1.47
2018-09-01T16:07:12.760Z,1.30
2018-09-01T16:09:39.786Z,1.77
2018-09-01T16:12:06.755Z,2.20
2018-09-01T16:14:33.659Z,1.90
2018-09-01T16:17:00.833Z,1.80
2018-09-01T16:19:27.877Z,1.70
2018-09-01T16:21:54.862Z,2.30
2018-09-01T16:24:21.855Z,1.47
2018-09-01T16:26:48.788Z,1.33
2018-09-01T16:29:15.747Z,1.47
2018-09-01T16:31:42.748Z,1.43
2018-09-01T16:34:09.705Z,1.43
2018-09-01T16:36:36.778Z,1.63
2018-09-01T16:39:04.881Z,1.40
2018-09-01T16:41:32.311Z,1.37
2018-09-01T16:43:59.307Z,1.57
2018-09-01T16:46:26.365Z,1.30
2018-09-01T16:48:53.419Z,1.70
2018-09-01T16:51:20.667Z,1.30
2018-09-01T16:53:47.443Z,1.53
2018-09-01T16:56:15.148Z,1.60
2018-09-01T16:58:42.079Z,1.17
2018-09-01T17:01:09.352Z,2.00
2018-09-01T17:03:36.413Z,1.60
2018-09-01T17:06:03.363Z,1.50
2018-09-01T17:08:30.291Z,1.30
2018-09-01T17:10:57.323Z,1.63
2018-09-01T17:13:24.255Z,1.47
2018-09-01T17:15:51.219Z,1.30
2018-09-01T17:18:18.144Z,1.27
2018-09-01T17:20:45.101Z,1.20
2018-09-01T17:23:12.187Z,1.10
2018-09-01T17:25:39.127Z,1.53
2018-09-01T17:28:06.107Z,1.70
2018-09-01T17:30:33.215Z,1.43
2018-09-01T17:33:00.176Z,1.83
2018-09-01T17:35:27.176Z,1.30
2018-09-01T17:37:54.111Z,1.50
2018-09-01T17:40:21.054Z,1.47
2018-09-01T17:42:48.030Z,1.50
2018-09-01T17:45:14.979Z,1.30
2018-09-01T17:47:41.940Z,1.83
2018-09-01T17:50:08.896Z,1.43
2018-09-01T17:52:35.756Z,1.80
2018-09-01T17:55:02.959Z,1.50
2018-09-01T17:57:29.911Z,1.33
2018-09-01T17:59:56.927Z,1.60
2018-09-01T18:02:30.037Z,1.20
2018-09-01T18:05:03.484Z,1.37
2018-09-01T18:07:36.666Z,1.30
2018-09-01T18:10:09.936Z,1.60
2018-09-01T18:12:42.991Z,1.57
2018-09-01T18:15:16.467Z,1.90
2018-09-01T18:17:49.494Z,2.20
2018-09-01T18:20:22.618Z,2.50
2018-09-01T18:22:56.959Z,1.83
2018-09-01T18:25:30.564Z,1.77
2018-09-01T18:28:03.836Z,2.10
2018-09-01T18:30:36.831Z,1.90
2018-09-01T18:33:10.040Z,1.70
2018-09-01T18:35:43.084Z,1.60
2018-09-01T18:38:16.271Z,1.30
2018-09-01T18:40:49.403Z,1.40
2018-09-01T18:43:22.568Z,1.70
2018-09-01T18:45:55.746Z,1.50
2018-09-01T18:48:28.746Z,1.80
2018-09-01T18:51:02.900Z,3.30
2018-09-01T18:53:36.124Z,1.93
2018-09-01T18:56:09.331Z,1.67
2018-09-01T18:58:42.480Z,1.70
2018-09-01T19:01:15.843Z,1.47
2018-09-01T19:03:49.007Z,1.70
2018-09-01T19:06:21.991Z,1.67
2018-09-01T19:08:54.955Z,1.70
2018-09-01T19:11:28.030Z,1.50
2018-09-01T19:14:01.272Z,1.60
2018-09-01T19:16:34.451Z,1.50
2018-09-01T19:19:07.327Z,1.30
2018-09-01T19:21:40.334Z,2.30
2018-09-01T19:24:13.404Z,1.50
2018-09-01T19:26:46.543Z,1.80
2018-09-01T19:29:19.625Z,1.53
2018-09-01T19:31:52.727Z,1.40
2018-09-01T19:34:25.703Z,1.40
2018-09-01T19:36:58.811Z,1.27
2018-09-01T19:39:31.919Z,1.33
2018-09-01T19:42:04.976Z,1.40
2018-09-01T19:44:38.106Z,1.30
2018-09-01T19:47:11.229Z,1.73
2018-09-01T19:49:44.360Z,1.17
2018-09-01T19:52:17.503Z,1.43
2018-09-01T19:54:50.555Z,1.75
2018-09-01T19:57:23.839Z,1.50
2018-09-01T19:59:57.013Z,1.53
2018-09-01T20:02:31.263Z,1.27
2018-09-01T20:05:04.461Z,1.97
2018-09-01T20:07:37.507Z,1.20
2018-09-01T20:10:10.589Z,1.37
2018-09-01T20:12:43.595Z,1.53
2018-09-01T20:15:16.654Z,1.67
2018-09-01T20:17:49.916Z,1.30
2018-09-01T20:21:19.571Z,1.37
2018-09-01T20:24:33.873Z,2.10
2018-09-01T20:27:28.663Z,1.70
2018-09-01T20:30:02.628Z,1.67
2018-09-01T20:32:35.858Z,1.23
2018-09-01T20:35:14.722Z,1.60
2018-09-01T20:37:47.888Z,1.70
2018-09-01T20:40:21.073Z,1.50
2018-09-01T20:42:54.268Z,1.70
2018-09-01T20:45:27.475Z,1.60
2018-09-01T20:48:00.683Z,1.77
2018-09-01T20:50:33.883Z,1.90
2018-09-01T20:53:07.003Z,1.40
2018-09-01T20:55:40.148Z,2.03
2018-09-01T20:58:13.295Z,1.77
2018-09-01T21:00:46.418Z,1.63
2018-09-01T21:03:21.447Z,1.40
2018-09-01T21:05:54.539Z,2.00
2018-09-01T21:08:27.451Z,2.50
2018-09-01T21:11:00.551Z,1.40
2018-09-01T21:13:33.759Z,1.50
2018-09-01T21:16:07.684Z,1.70
2018-09-01T21:18:40.988Z,1.90
2018-09-01T21:21:14.062Z,1.73
2018-09-01T21:23:47.084Z,1.90
2018-09-01T21:26:20.178Z,1.73
2018-09-01T21:28:53.279Z,1.70
2018-09-01T21:31:26.419Z,1.60
2018-09-01T21:33:59.439Z,1.90
2018-09-01T21:36:32.391Z,2.23
2018-09-01T21:39:06.432Z,1.77
2018-09-01T21:41:39.423Z,2.10
2018-09-01T21:44:12.634Z,2.10
2018-09-01T21:46:45.823Z,1.70
2018-09-01T21:49:19.038Z,2.10
2018-09-01T21:51:52.111Z,1.77
2018-09-01T21:54:25.347Z,1.80
2018-09-01T21:56:58.471Z,1.73
2018-09-01T21:59:31.561Z,1.67
2018-09-01T22:02:10.598Z,1.63
2018-09-01T22:04:49.292Z,1.90
2018-09-01T22:07:22.431Z,2.20
2018-09-01T22:09:55.667Z,1.60
2018-09-01T22:12:28.815Z,2.10
2018-09-01T22:15:01.957Z,1.60
2018-09-01T22:17:36.065Z,1.57
2018-09-01T22:20:09.179Z,1.73
2018-09-01T22:22:42.273Z,1.83
2018-09-01T22:25:15.359Z,1.90
2018-09-01T22:27:48.455Z,1.60
2018-09-01T22:30:21.767Z,2.10
2018-09-01T22:32:54.862Z,1.60
2018-09-01T22:35:28.089Z,2.17
2018-09-01T22:38:01.063Z,1.90
2018-09-01T22:40:34.067Z,2.00
2018-09-01T22:43:07.255Z,1.77
2018-09-01T22:45:41.212Z,2.10
2018-09-01T22:48:14.318Z,1.63
2018-09-01T22:50:47.470Z,2.33
2018-09-01T22:53:20.492Z,2.00
2018-09-01T22:55:53.554Z,2.37
2018-09-01T22:58:26.710Z,1.93
2018-09-01T23:00:59.807Z,2.20
2018-09-01T23:03:32.932Z,2.03
2018-09-01T23:06:05.907Z,2.07
2018-09-01T23:08:39.047Z,2.30
2018-09-01T23:11:12.239Z,2.07
2018-09-01T23:13:46.307Z,2.53
2018-09-01T23:16:19.344Z,2.00
2018-09-01T23:18:52.407Z,2.50
2018-09-01T23:21:25.340Z,2.30
2018-09-01T23:23:58.336Z,1.83
2018-09-01T23:26:31.479Z,2.03
2018-09-01T23:29:04.435Z,2.70
2018-09-01T23:31:38.467Z,2.03
2018-09-01T23:34:11.576Z,1.77
2018-09-01T23:36:44.671Z,2.00
2018-09-01T23:39:17.908Z,1.73
2018-09-01T23:41:51.030Z,2.57
2018-09-01T23:44:23.983Z,2.20
2018-09-01T23:46:57.093Z,2.17
2018-09-01T23:49:30.197Z,1.77
2018-09-01T23:52:03.251Z,1.97
2018-09-01T23:54:36.383Z,2.33
2018-09-01T23:57:09.476Z,2.50
2018-09-01T23:59:43.646Z,2.70
